TimeCDT,TemperatureF,Dew PointF,Humidity,Sea Level PressureIn,VisibilityMPH,Wind Direction,Wind SpeedMPH,Gust SpeedMPH,PrecipitationIn,Events,Conditions,WindDirDegrees,DateUTC
12:15 AM,70.2,63.7,80,29.89,10.0,East,3.5,-,N/A,,Clear,100,2013-07-22 05:15:00
12:35 AM,70.3,63.9,80,29.89,10.0,Calm,Calm,-,N/A,,Clear,0,2013-07-22 05:35:00
12:55 AM,70.2,64.2,81,29.90,10.0,Calm,Calm,-,N/A,,Clear,0,2013-07-22 05:55:00
1:15 AM,71.6,62.6,73,29.90,10.0,South,4.6,-,N/A,,Clear,190,2013-07-22 06:15:00
1:35 AM,71.6,62.6,73,29.89,10.0,South,4.6,-,N/A,,Clear,190,2013-07-22 06:35:00
1:55 AM,72.1,62.1,70,29.90,10.0,SSW,5.8,-,N/A,Thunderstorm,Clear,200,2013-07-22 06:55:00
2:15 AM,71.8,62.6,73,29.91,10.0,WSW,6.9,-,N/A,Thunderstorm,Thunderstorm,240,2013-07-22 07:15:00
2:35 AM,71.8,63.0,74,29.90,10.0,West,9.2,-,N/A,Thunderstorm,Thunderstorm,280,2013-07-22 07:35:00
2:55 AM,70.3,63.7,79,29.87,10.0,SSW,5.8,-,N/A,Rain-Thunderstorm,Light Thunderstorms and Rain,200,2013-07-22 07:55:00
3:15 AM,69.8,63.1,79,29.86,10.0,South,9.2,-,N/A,Thunderstorm,Thunderstorm,170,2013-07-22 08:15:00
3:35 AM,71.4,62.1,72,29.85,10.0,South,6.9,-,N/A,,Clear,180,2013-07-22 08:35:00
3:55 AM,70.0,62.1,76,29.84,10.0,South,6.9,-,N/A,,Clear,180,2013-07-22 08:55:00
4:15 AM,69.8,62.1,76,29.84,10.0,South,10.4,-,N/A,,Clear,190,2013-07-22 09:15:00
4:35 AM,68.9,62.1,79,29.83,10.0,South,8.1,-,N/A,,Clear,170,2013-07-22 09:35:00
4:55 AM,68.9,61.9,78,29.83,10.0,SW,9.2,-,N/A,,Clear,220,2013-07-22 09:55:00
5:15 AM,67.5,61.2,80,29.84,10.0,ENE,8.1,-,N/A,,Clear,60,2013-07-22 10:15:00
5:35 AM,66.2,61.2,84,29.84,10.0,Calm,Calm,-,N/A,,Clear,0,2013-07-22 10:35:00
5:55 AM,65.7,60.6,84,29.85,10.0,Calm,Calm,-,N/A,,Clear,0,2013-07-22 10:55:00
6:15 AM,66.2,58.8,77,29.84,10.0,Calm,Calm,-,N/A,,Clear,0,2013-07-22 11:15:00
6:35 AM,64.9,56.7,74,29.85,10.0,SSW,4.6,-,N/A,,Clear,210,2013-07-22 11:35:00
6:55 AM,64.6,58.1,79,29.87,10.0,Calm,Calm,-,N/A,,Clear,0,2013-07-22 11:55:00
7:15 AM,65.3,58.6,79,29.87,10.0,Calm,Calm,-,N/A,,Clear,0,2013-07-22 12:15:00
7:35 AM,67.1,59.5,77,29.88,10.0,NW,4.6,-,N/A,,Clear,320,2013-07-22 12:35:00
7:55 AM,69.4,57.9,67,29.90,10.0,WNW,5.8,-,N/A,,Clear,300,2013-07-22 12:55:00
8:35 AM,73.8,59.7,61,29.91,10.0,NW,4.6,-,N/A,,Clear,320,2013-07-22 13:35:00
8:55 AM,75.7,59.7,57,29.91,10.0,NW,8.1,-,N/A,,Clear,320,2013-07-22 13:55:00
9:35 AM,76.6,60.4,57,29.92,10.0,North,6.9,-,N/A,,Clear,10,2013-07-22 14:35:00
9:55 AM,76.6,61.2,59,29.93,10.0,North,8.1,-,N/A,,Clear,360,2013-07-22 14:55:00
10:15 AM,77.9,62.2,58,29.93,10.0,NNW,10.4,-,N/A,,Clear,340,2013-07-22 15:15:00
10:35 AM,78.6,63.5,60,29.93,10.0,North,10.4,17.3,N/A,,Clear,10,2013-07-22 15:35:00
10:55 AM,79.2,63.7,59,29.93,10.0,NNE,12.7,-,N/A,,Clear,20,2013-07-22 15:55:00
11:15 AM,80.1,63.1,56,29.94,10.0,North,11.5,16.1,N/A,,Clear,360,2013-07-22 16:15:00
11:35 AM,80.6,62.6,54,29.95,10.0,NNE,12.7,-,N/A,,Clear,30,2013-07-22 16:35:00
11:55 AM,81.0,60.3,49,29.96,10.0,NNE,12.7,16.1,N/A,,Clear,20,2013-07-22 16:55:00
12:15 PM,81.3,59.9,48,29.96,10.0,North,10.4,17.3,N/A,,Clear,10,2013-07-22 17:15:00
12:35 PM,82.2,58.6,45,29.96,10.0,NNE,12.7,17.3,N/A,,Clear,20,2013-07-22 17:35:00
12:55 PM,82.6,58.6,44,29.97,10.0,North,10.4,16.1,N/A,,Clear,360,2013-07-22 17:55:00
1:15 PM,82.9,57.6,42,29.97,10.0,North,9.2,-,N/A,,Clear,350,2013-07-22 18:15:00
1:35 PM,83.5,57.0,40,29.96,10.0,NNE,12.7,16.1,N/A,,Clear,20,2013-07-22 18:35:00
1:55 PM,83.5,57.0,40,29.96,10.0,NNE,6.9,-,N/A,,Clear,30,2013-07-22 18:55:00
2:15 PM,84.9,57.0,38,29.96,10.0,North,6.9,-,N/A,,Clear,360,2013-07-22 19:15:00
2:35 PM,83.1,54.5,37,29.96,10.0,North,5.8,-,N/A,,Clear,360,2013-07-22 19:35:00
2:55 PM,85.3,54.7,35,29.96,10.0,NNE,8.1,-,N/A,,Clear,30,2013-07-22 19:55:00
3:15 PM,86.0,53.4,33,29.96,10.0,NE,10.4,-,N/A,,Clear,40,2013-07-22 20:15:00
3:35 PM,86.7,52.2,30,29.96,10.0,NNE,6.9,-,N/A,,Clear,20,2013-07-22 20:35:00
3:55 PM,86.9,53.2,31,29.95,10.0,NNE,6.9,-,N/A,,Clear,20,2013-07-22 20:55:00
4:15 PM,87.1,53.4,31,29.94,10.0,NNE,12.7,-,N/A,,Clear,30,2013-07-22 21:15:00
4:35 PM,87.8,52.5,30,29.94,10.0,NE,10.4,19.6,N/A,,Clear,50,2013-07-22 21:35:00
4:55 PM,87.8,52.2,29,29.94,10.0,ENE,10.4,-,N/A,,Clear,60,2013-07-22 21:55:00
5:15 PM,87.6,51.3,29,29.94,10.0,NE,10.4,-,N/A,,Clear,50,2013-07-22 22:15:00
5:35 PM,87.1,49.6,27,29.94,10.0,ENE,11.5,-,N/A,,Clear,70,2013-07-22 22:35:00
5:55 PM,87.3,50.2,28,29.93,10.0,ENE,10.4,-,N/A,,Clear,70,2013-07-22 22:55:00
6:15 PM,86.2,49.3,28,29.93,10.0,ENE,8.1,-,N/A,,Clear,70,2013-07-22 23:15:00
6:35 PM,86.4,48.0,26,29.93,10.0,ENE,8.1,-,N/A,,Clear,70,2013-07-22 23:35:00
6:55 PM,85.3,50.5,30,29.93,10.0,ENE,9.2,-,N/A,,Clear,70,2013-07-22 23:55:00
7:15 PM,83.8,52.3,34,29.93,10.0,ENE,5.8,-,N/A,,Clear,70,2013-07-23 00:15:00
7:35 PM,84.0,52.3,33,29.94,10.0,ENE,9.2,-,N/A,,Clear,60,2013-07-23 00:35:00
7:55 PM,82.2,52.9,36,29.93,10.0,East,9.2,-,N/A,,Clear,80,2013-07-23 00:55:00
8:15 PM,81.1,54.0,39,29.92,10.0,East,9.2,-,N/A,,Clear,90,2013-07-23 01:15:00
8:35 PM,79.9,54.9,42,29.93,10.0,East,8.1,-,N/A,,Clear,80,2013-07-23 01:35:00
8:55 PM,77.9,56.3,47,29.93,10.0,East,8.1,-,N/A,,Clear,90,2013-07-23 01:55:00
9:15 PM,75.9,55.4,49,29.93,10.0,East,8.1,-,N/A,,Clear,90,2013-07-23 02:15:00
9:35 PM,74.3,55.4,52,29.93,10.0,East,6.9,-,N/A,,Clear,90,2013-07-23 02:35:00
9:55 PM,73.9,55.2,52,29.93,10.0,East,4.6,-,N/A,,Clear,100,2013-07-23 02:55:00
10:15 PM,71.1,57.0,61,29.93,10.0,East,4.6,-,N/A,,Clear,80,2013-07-23 03:15:00
10:35 PM,71.6,56.3,58,29.93,10.0,ESE,5.8,-,N/A,,Clear,110,2013-07-23 03:35:00
10:55 PM,71.8,55.9,57,29.94,10.0,East,6.9,-,N/A,,Clear,90,2013-07-23 03:55:00
11:15 PM,70.5,56.7,61,29.93,10.0,East,5.8,-,N/A,,Clear,90,2013-07-23 04:15:00
11:35 PM,68.2,57.2,68,29.92,10.0,East,5.8,-,N/A,,Clear,90,2013-07-23 04:35:00
11:55 PM,70.0,56.5,62,29.92,10.0,East,6.9,-,N/A,,Clear,100,2013-07-23 04:55:00